sensor_id;sensor_type;location;lat;lon;timestamp;temperature;humidity
76305;DHT22;65111;50.536;19.204;2023-06-22T00:00:51;20.30;88.30
76305;DHT22;65111;50.536;19.204;2023-06-22T00:03:19;20.20;88.40
76305;DHT22;65111;50.536;19.204;2023-06-22T00:05:49;20.30;88.90
76305;DHT22;65111;50.536;19.204;2023-06-22T00:08:16;20.30;88.90
76305;DHT22;65111;50.536;19.204;2023-06-22T00:10:42;20.40;88.70
76305;DHT22;65111;50.536;19.204;2023-06-22T00:13:09;20.50;88.80
76305;DHT22;65111;50.536;19.204;2023-06-22T00:15:36;20.50;88.80
76305;DHT22;65111;50.536;19.204;2023-06-22T00:18:03;20.50;89.00
76305;DHT22;65111;50.536;19.204;2023-06-22T00:20:29;20.50;88.70
76305;DHT22;65111;50.536;19.204;2023-06-22T00:22:57;20.50;88.60
76305;DHT22;65111;50.536;19.204;2023-06-22T00:25:23;20.50;88.40
76305;DHT22;65111;50.536;19.204;2023-06-22T00:27:50;20.40;88.50
76305;DHT22;65111;50.536;19.204;2023-06-22T00:30:17;20.40;88.60
76305;DHT22;65111;50.536;19.204;2023-06-22T00:32:44;20.40;88.80
76305;DHT22;65111;50.536;19.204;2023-06-22T00:35:12;20.40;88.90
76305;DHT22;65111;50.536;19.204;2023-06-22T00:37:39;20.50;89.00
76305;DHT22;65111;50.536;19.204;2023-06-22T00:40:10;20.50;89.00
76305;DHT22;65111;50.536;19.204;2023-06-22T00:42:38;20.40;88.90
76305;DHT22;65111;50.536;19.204;2023-06-22T00:45:08;20.40;88.90
76305;DHT22;65111;50.536;19.204;2023-06-22T00:47:35;20.30;88.80
76305;DHT22;65111;50.536;19.204;2023-06-22T00:50:02;20.30;88.70
76305;DHT22;65111;50.536;19.204;2023-06-22T00:52:29;20.30;88.90
76305;DHT22;65111;50.536;19.204;2023-06-22T00:54:59;20.30;88.90
76305;DHT22;65111;50.536;19.204;2023-06-22T00:57:28;20.20;89.10
76305;DHT22;65111;50.536;19.204;2023-06-22T00:59:54;20.20;89.10
76305;DHT22;65111;50.536;19.204;2023-06-22T01:02:21;20.10;89.20
76305;DHT22;65111;50.536;19.204;2023-06-22T01:04:47;20.20;89.10
76305;DHT22;65111;50.536;19.204;2023-06-22T01:07:27;20.10;88.80
76305;DHT22;65111;50.536;19.204;2023-06-22T01:10:10;20.00;88.90
76305;DHT22;65111;50.536;19.204;2023-06-22T01:12:45;20.00;88.90
76305;DHT22;65111;50.536;19.204;2023-06-22T01:15:21;19.90;88.90
76305;DHT22;65111;50.536;19.204;2023-06-22T01:17:49;19.80;88.90
76305;DHT22;65111;50.536;19.204;2023-06-22T01:20:19;19.70;89.00
76305;DHT22;65111;50.536;19.204;2023-06-22T01:23:27;19.70;89.00
76305;DHT22;65111;50.536;19.204;2023-06-22T01:26:06;19.70;89.10
76305;DHT22;65111;50.536;19.204;2023-06-22T01:28:48;19.60;89.00
76305;DHT22;65111;50.536;19.204;2023-06-22T01:31:18;19.60;89.10
76305;DHT22;65111;50.536;19.204;2023-06-22T01:33:49;19.50;89.20
76305;DHT22;65111;50.536;19.204;2023-06-22T01:36:16;19.50;89.30
76305;DHT22;65111;50.536;19.204;2023-06-22T01:38:43;19.50;89.40
76305;DHT22;65111;50.536;19.204;2023-06-22T01:41:10;19.50;89.40
76305;DHT22;65111;50.536;19.204;2023-06-22T01:43:37;19.50;89.50
76305;DHT22;65111;50.536;19.204;2023-06-22T01:46:04;19.50;89.40
76305;DHT22;65111;50.536;19.204;2023-06-22T01:48:30;19.40;89.40
76305;DHT22;65111;50.536;19.204;2023-06-22T01:50:57;19.40;89.50
76305;DHT22;65111;50.536;19.204;2023-06-22T01:53:24;19.30;89.40
76305;DHT22;65111;50.536;19.204;2023-06-22T01:55:50;19.30;89.50
76305;DHT22;65111;50.536;19.204;2023-06-22T01:58:16;19.30;89.50
76305;DHT22;65111;50.536;19.204;2023-06-22T02:00:50;19.30;89.50
76305;DHT22;65111;50.536;19.204;2023-06-22T02:03:23;19.20;89.50
76305;DHT22;65111;50.536;19.204;2023-06-22T02:06:06;19.20;89.50
76305;DHT22;65111;50.536;19.204;2023-06-22T02:08:57;19.10;89.60
76305;DHT22;65111;50.536;19.204;2023-06-22T02:11:26;19.10;89.70
76305;DHT22;65111;50.536;19.204;2023-06-22T02:13:56;19.10;89.60
76305;DHT22;65111;50.536;19.204;2023-06-22T02:16:23;19.10;89.80
76305;DHT22;65111;50.536;19.204;2023-06-22T02:18:50;19.10;89.80
76305;DHT22;65111;50.536;19.204;2023-06-22T02:21:18;19.00;89.70
76305;DHT22;65111;50.536;19.204;2023-06-22T02:23:44;19.00;89.70
76305;DHT22;65111;50.536;19.204;2023-06-22T02:26:10;19.00;89.70
76305;DHT22;65111;50.536;19.204;2023-06-22T02:28:36;18.90;89.80
76305;DHT22;65111;50.536;19.204;2023-06-22T02:31:02;18.90;89.70
76305;DHT22;65111;50.536;19.204;2023-06-22T02:33:28;18.90;89.70
76305;DHT22;65111;50.536;19.204;2023-06-22T02:35:54;18.70;89.80
76305;DHT22;65111;50.536;19.204;2023-06-22T02:38:20;18.80;89.70
76305;DHT22;65111;50.536;19.204;2023-06-22T02:40:46;18.70;89.90
76305;DHT22;65111;50.536;19.204;2023-06-22T02:43:13;18.60;89.90
76305;DHT22;65111;50.536;19.204;2023-06-22T02:45:39;18.70;90.10
76305;DHT22;65111;50.536;19.204;2023-06-22T02:48:05;18.70;90.20
76305;DHT22;65111;50.536;19.204;2023-06-22T02:50:31;18.60;90.30
76305;DHT22;65111;50.536;19.204;2023-06-22T02:52:57;18.70;90.40
76305;DHT22;65111;50.536;19.204;2023-06-22T02:55:23;18.70;90.40
76305;DHT22;65111;50.536;19.204;2023-06-22T02:57:49;18.70;90.40
76305;DHT22;65111;50.536;19.204;2023-06-22T03:00:19;18.70;90.50
76305;DHT22;65111;50.536;19.204;2023-06-22T03:02:46;18.70;90.60
76305;DHT22;65111;50.536;19.204;2023-06-22T03:05:13;18.70;90.60
76305;DHT22;65111;50.536;19.204;2023-06-22T03:07:41;18.70;90.60
76305;DHT22;65111;50.536;19.204;2023-06-22T03:10:09;18.70;90.50
76305;DHT22;65111;50.536;19.204;2023-06-22T03:12:36;18.70;90.80
76305;DHT22;65111;50.536;19.204;2023-06-22T03:15:03;18.80;90.80
76305;DHT22;65111;50.536;19.204;2023-06-22T03:17:29;18.80;90.80
76305;DHT22;65111;50.536;19.204;2023-06-22T03:19:55;18.80;91.00
76305;DHT22;65111;50.536;19.204;2023-06-22T03:22:21;18.90;90.90
76305;DHT22;65111;50.536;19.204;2023-06-22T03:24:47;19.00;91.10
76305;DHT22;65111;50.536;19.204;2023-06-22T03:27:12;19.00;90.90
76305;DHT22;65111;50.536;19.204;2023-06-22T03:29:38;19.20;90.90
76305;DHT22;65111;50.536;19.204;2023-06-22T03:32:05;19.20;90.90
76305;DHT22;65111;50.536;19.204;2023-06-22T03:34:31;19.30;90.90
76305;DHT22;65111;50.536;19.204;2023-06-22T03:36:59;19.30;90.80
76305;DHT22;65111;50.536;19.204;2023-06-22T03:39:25;19.50;90.70
76305;DHT22;65111;50.536;19.204;2023-06-22T03:41:51;19.50;90.80
76305;DHT22;65111;50.536;19.204;2023-06-22T03:44:17;19.70;90.80
76305;DHT22;65111;50.536;19.204;2023-06-22T03:46:43;19.80;90.60
76305;DHT22;65111;50.536;19.204;2023-06-22T03:49:09;19.90;90.60
76305;DHT22;65111;50.536;19.204;2023-06-22T03:51:35;20.00;90.50
76305;DHT22;65111;50.536;19.204;2023-06-22T03:54:01;20.00;90.50
76305;DHT22;65111;50.536;19.204;2023-06-22T03:56:27;20.10;90.60
76305;DHT22;65111;50.536;19.204;2023-06-22T03:58:53;20.30;90.70
76305;DHT22;65111;50.536;19.204;2023-06-22T04:01:19;20.30;90.70
76305;DHT22;65111;50.536;19.204;2023-06-22T04:03:44;20.50;90.70
76305;DHT22;65111;50.536;19.204;2023-06-22T04:06:13;20.70;90.60
76305;DHT22;65111;50.536;19.204;2023-06-22T04:08:39;21.00;90.30
76305;DHT22;65111;50.536;19.204;2023-06-22T04:11:06;21.20;90.20
76305;DHT22;65111;50.536;19.204;2023-06-22T04:13:32;21.70;89.90
76305;DHT22;65111;50.536;19.204;2023-06-22T04:15:58;22.00;89.60
76305;DHT22;65111;50.536;19.204;2023-06-22T04:18:26;22.40;89.00
76305;DHT22;65111;50.536;19.204;2023-06-22T04:20:52;22.80;88.40
76305;DHT22;65111;50.536;19.204;2023-06-22T04:23:18;23.30;88.00
76305;DHT22;65111;50.536;19.204;2023-06-22T04:25:44;23.70;87.50
76305;DHT22;65111;50.536;19.204;2023-06-22T04:28:10;24.00;86.90
76305;DHT22;65111;50.536;19.204;2023-06-22T04:30:38;24.40;86.70
76305;DHT22;65111;50.536;19.204;2023-06-22T04:33:13;24.80;86.50
76305;DHT22;65111;50.536;19.204;2023-06-22T04:35:40;25.20;85.90
76305;DHT22;65111;50.536;19.204;2023-06-22T04:38:07;25.50;85.30
76305;DHT22;65111;50.536;19.204;2023-06-22T04:40:33;25.70;84.80
76305;DHT22;65111;50.536;19.204;2023-06-22T04:42:59;25.70;84.50
76305;DHT22;65111;50.536;19.204;2023-06-22T04:45:28;25.90;84.50
76305;DHT22;65111;50.536;19.204;2023-06-22T04:47:55;26.20;84.90
76305;DHT22;65111;50.536;19.204;2023-06-22T04:50:21;26.50;84.60
76305;DHT22;65111;50.536;19.204;2023-06-22T04:52:50;26.60;82.70
76305;DHT22;65111;50.536;19.204;2023-06-22T04:55:16;26.80;83.70
76305;DHT22;65111;50.536;19.204;2023-06-22T04:57:47;27.00;83.20
76305;DHT22;65111;50.536;19.204;2023-06-22T05:00:18;27.40;82.50
76305;DHT22;65111;50.536;19.204;2023-06-22T05:02:49;27.80;82.90
76305;DHT22;65111;50.536;19.204;2023-06-22T05:05:15;28.20;81.90
76305;DHT22;65111;50.536;19.204;2023-06-22T05:07:43;28.50;80.70
76305;DHT22;65111;50.536;19.204;2023-06-22T05:10:11;28.80;80.00
76305;DHT22;65111;50.536;19.204;2023-06-22T05:12:39;29.10;80.10
76305;DHT22;65111;50.536;19.204;2023-06-22T05:15:07;29.40;80.30
76305;DHT22;65111;50.536;19.204;2023-06-22T05:17:33;29.80;79.60
76305;DHT22;65111;50.536;19.204;2023-06-22T05:20:00;30.20;80.10
76305;DHT22;65111;50.536;19.204;2023-06-22T05:22:26;30.50;79.50
76305;DHT22;65111;50.536;19.204;2023-06-22T05:24:52;31.20;78.90
76305;DHT22;65111;50.536;19.204;2023-06-22T05:27:17;31.40;77.70
76305;DHT22;65111;50.536;19.204;2023-06-22T05:29:43;31.60;75.90
76305;DHT22;65111;50.536;19.204;2023-06-22T05:32:09;31.50;75.60
76305;DHT22;65111;50.536;19.204;2023-06-22T05:34:35;31.10;76.30
76305;DHT22;65111;50.536;19.204;2023-06-22T05:37:02;31.00;76.10
76305;DHT22;65111;50.536;19.204;2023-06-22T05:39:29;31.00;75.20
76305;DHT22;65111;50.536;19.204;2023-06-22T05:41:55;30.90;72.50
76305;DHT22;65111;50.536;19.204;2023-06-22T05:44:21;30.80;74.70
76305;DHT22;65111;50.536;19.204;2023-06-22T05:46:47;30.80;71.80
76305;DHT22;65111;50.536;19.204;2023-06-22T05:49:14;30.70;70.40
76305;DHT22;65111;50.536;19.204;2023-06-22T05:51:40;30.60;68.70
76305;DHT22;65111;50.536;19.204;2023-06-22T05:54:07;30.60;70.30
76305;DHT22;65111;50.536;19.204;2023-06-22T05:56:34;30.90;69.90
76305;DHT22;65111;50.536;19.204;2023-06-22T05:59:00;31.10;70.90
76305;DHT22;65111;50.536;19.204;2023-06-22T06:01:26;31.40;69.40
76305;DHT22;65111;50.536;19.204;2023-06-22T06:03:52;31.70;68.90
76305;DHT22;65111;50.536;19.204;2023-06-22T06:06:19;32.10;71.20
76305;DHT22;65111;50.536;19.204;2023-06-22T06:08:49;32.50;71.10
76305;DHT22;65111;50.536;19.204;2023-06-22T06:11:15;33.00;67.50
76305;DHT22;65111;50.536;19.204;2023-06-22T06:13:41;33.30;66.20
76305;DHT22;65111;50.536;19.204;2023-06-22T06:16:07;33.70;64.40
76305;DHT22;65111;50.536;19.204;2023-06-22T06:18:33;34.10;63.30
76305;DHT22;65111;50.536;19.204;2023-06-22T06:20:59;34.60;62.10
76305;DHT22;65111;50.536;19.204;2023-06-22T06:23:24;35.10;57.10
76305;DHT22;65111;50.536;19.204;2023-06-22T06:25:50;35.30;57.40
76305;DHT22;65111;50.536;19.204;2023-06-22T06:28:16;35.80;58.10
76305;DHT22;65111;50.536;19.204;2023-06-22T06:30:42;36.10;57.60
76305;DHT22;65111;50.536;19.204;2023-06-22T06:33:08;36.40;53.40
76305;DHT22;65111;50.536;19.204;2023-06-22T06:35:34;36.40;51.50
76305;DHT22;65111;50.536;19.204;2023-06-22T06:38:01;36.20;55.10
76305;DHT22;65111;50.536;19.204;2023-06-22T06:40:28;36.70;55.50
76305;DHT22;65111;50.536;19.204;2023-06-22T06:42:54;37.40;56.70
76305;DHT22;65111;50.536;19.204;2023-06-22T06:45:21;37.90;51.10
76305;DHT22;65111;50.536;19.204;2023-06-22T06:47:53;38.10;50.30
76305;DHT22;65111;50.536;19.204;2023-06-22T06:50:21;38.40;54.10
76305;DHT22;65111;50.536;19.204;2023-06-22T06:52:47;38.70;56.70
76305;DHT22;65111;50.536;19.204;2023-06-22T06:55:13;39.30;60.00
76305;DHT22;65111;50.536;19.204;2023-06-22T06:57:40;39.80;52.40
76305;DHT22;65111;50.536;19.204;2023-06-22T07:00:09;39.50;53.80
76305;DHT22;65111;50.536;19.204;2023-06-22T07:02:38;39.50;57.80
76305;DHT22;65111;50.536;19.204;2023-06-22T07:05:06;39.70;64.20
76305;DHT22;65111;50.536;19.204;2023-06-22T07:07:32;40.30;62.90
76305;DHT22;65111;50.536;19.204;2023-06-22T07:09:58;40.20;54.00
76305;DHT22;65111;50.536;19.204;2023-06-22T07:12:24;39.60;53.00
76305;DHT22;65111;50.536;19.204;2023-06-22T07:14:52;39.20;55.50
76305;DHT22;65111;50.536;19.204;2023-06-22T07:17:18;39.10;58.90
76305;DHT22;65111;50.536;19.204;2023-06-22T07:19:44;38.90;59.20
76305;DHT22;65111;50.536;19.204;2023-06-22T07:22:10;39.10;61.20
76305;DHT22;65111;50.536;19.204;2023-06-22T07:24:36;39.60;59.60
76305;DHT22;65111;50.536;19.204;2023-06-22T07:27:03;40.10;63.30
76305;DHT22;65111;50.536;19.204;2023-06-22T07:29:31;40.60;63.90
76305;DHT22;65111;50.536;19.204;2023-06-22T07:31:57;41.10;62.60
76305;DHT22;65111;50.536;19.204;2023-06-22T07:34:23;41.60;61.80
76305;DHT22;65111;50.536;19.204;2023-06-22T07:36:49;42.00;68.30
76305;DHT22;65111;50.536;19.204;2023-06-22T07:39:15;42.50;59.80
76305;DHT22;65111;50.536;19.204;2023-06-22T07:41:41;42.90;65.50
76305;DHT22;65111;50.536;19.204;2023-06-22T07:44:07;43.10;59.10
76305;DHT22;65111;50.536;19.204;2023-06-22T07:46:33;42.70;56.60
76305;DHT22;65111;50.536;19.204;2023-06-22T07:48:59;42.30;59.50
76305;DHT22;65111;50.536;19.204;2023-06-22T07:51:25;42.10;58.40
76305;DHT22;65111;50.536;19.204;2023-06-22T07:53:51;41.80;62.10
76305;DHT22;65111;50.536;19.204;2023-06-22T07:56:17;41.60;67.30
76305;DHT22;65111;50.536;19.204;2023-06-22T07:58:46;42.00;72.10
76305;DHT22;65111;50.536;19.204;2023-06-22T08:01:13;42.70;54.80
76305;DHT22;65111;50.536;19.204;2023-06-22T08:03:39;43.20;67.60
76305;DHT22;65111;50.536;19.204;2023-06-22T08:06:06;44.10;68.60
76305;DHT22;65111;50.536;19.204;2023-06-22T08:08:35;44.70;73.10
76305;DHT22;65111;50.536;19.204;2023-06-22T08:11:01;45.10;43.90
76305;DHT22;65111;50.536;19.204;2023-06-22T08:13:27;45.40;56.40
76305;DHT22;65111;50.536;19.204;2023-06-22T08:15:53;45.20;43.40
76305;DHT22;65111;50.536;19.204;2023-06-22T08:18:19;44.80;45.50
76305;DHT22;65111;50.536;19.204;2023-06-22T08:20:45;44.20;57.40
76305;DHT22;65111;50.536;19.204;2023-06-22T08:23:11;44.40;54.70
76305;DHT22;65111;50.536;19.204;2023-06-22T08:25:37;44.40;43.90
76305;DHT22;65111;50.536;19.204;2023-06-22T08:28:04;43.20;51.00
76305;DHT22;65111;50.536;19.204;2023-06-22T08:30:30;42.60;52.10
76305;DHT22;65111;50.536;19.204;2023-06-22T08:32:56;41.50;50.90
76305;DHT22;65111;50.536;19.204;2023-06-22T08:35:23;40.30;53.70
76305;DHT22;65111;50.536;19.204;2023-06-22T08:37:49;40.00;63.20
76305;DHT22;65111;50.536;19.204;2023-06-22T08:40:21;40.80;70.30
76305;DHT22;65111;50.536;19.204;2023-06-22T08:42:48;42.00;70.60
76305;DHT22;65111;50.536;19.204;2023-06-22T08:45:15;43.00;62.80
76305;DHT22;65111;50.536;19.204;2023-06-22T08:47:42;43.50;47.40
76305;DHT22;65111;50.536;19.204;2023-06-22T08:50:09;43.50;52.70
76305;DHT22;65111;50.536;19.204;2023-06-22T08:52:36;43.70;60.50
76305;DHT22;65111;50.536;19.204;2023-06-22T08:55:03;44.60;64.70
76305;DHT22;65111;50.536;19.204;2023-06-22T08:57:30;44.60;58.10
76305;DHT22;65111;50.536;19.204;2023-06-22T08:59:58;44.70;56.90
76305;DHT22;65111;50.536;19.204;2023-06-22T09:02:25;45.00;50.60
76305;DHT22;65111;50.536;19.204;2023-06-22T09:04:51;45.60;53.90
76305;DHT22;65111;50.536;19.204;2023-06-22T09:07:22;45.90;49.40
76305;DHT22;65111;50.536;19.204;2023-06-22T09:09:49;45.80;48.50
76305;DHT22;65111;50.536;19.204;2023-06-22T09:12:16;45.20;47.00
76305;DHT22;65111;50.536;19.204;2023-06-22T09:14:42;45.10;58.90
76305;DHT22;65111;50.536;19.204;2023-06-22T09:17:08;45.60;52.80
76305;DHT22;65111;50.536;19.204;2023-06-22T09:19:34;46.00;48.40
76305;DHT22;65111;50.536;19.204;2023-06-22T09:22:00;45.20;51.80
76305;DHT22;65111;50.536;19.204;2023-06-22T09:24:25;44.40;52.10
76305;DHT22;65111;50.536;19.204;2023-06-22T09:26:51;44.10;54.40
76305;DHT22;65111;50.536;19.204;2023-06-22T09:29:17;43.60;51.50
76305;DHT22;65111;50.536;19.204;2023-06-22T09:31:43;42.80;57.00
76305;DHT22;65111;50.536;19.204;2023-06-22T09:34:10;42.80;59.30
76305;DHT22;65111;50.536;19.204;2023-06-22T09:36:36;43.00;55.30
76305;DHT22;65111;50.536;19.204;2023-06-22T09:39:02;43.70;57.80
76305;DHT22;65111;50.536;19.204;2023-06-22T09:41:32;44.40;63.00
76305;DHT22;65111;50.536;19.204;2023-06-22T09:43:58;45.30;64.40
76305;DHT22;65111;50.536;19.204;2023-06-22T09:46:24;46.10;56.30
76305;DHT22;65111;50.536;19.204;2023-06-22T09:48:53;45.70;50.20
76305;DHT22;65111;50.536;19.204;2023-06-22T09:51:20;45.10;47.70
76305;DHT22;65111;50.536;19.204;2023-06-22T09:53:47;45.20;60.00
76305;DHT22;65111;50.536;19.204;2023-06-22T09:56:13;45.80;66.00
76305;DHT22;65111;50.536;19.204;2023-06-22T09:58:43;46.30;62.50
76305;DHT22;65111;50.536;19.204;2023-06-22T10:01:09;46.80;49.60
76305;DHT22;65111;50.536;19.204;2023-06-22T10:03:36;47.00;57.10
76305;DHT22;65111;50.536;19.204;2023-06-22T10:06:03;46.90;48.30
76305;DHT22;65111;50.536;19.204;2023-06-22T10:08:29;46.50;50.50
76305;DHT22;65111;50.536;19.204;2023-06-22T10:10:55;46.60;56.10
76305;DHT22;65111;50.536;19.204;2023-06-22T10:13:21;46.80;54.30
76305;DHT22;65111;50.536;19.204;2023-06-22T10:15:47;47.20;63.10
76305;DHT22;65111;50.536;19.204;2023-06-22T10:18:17;47.50;63.70
76305;DHT22;65111;50.536;19.204;2023-06-22T10:20:46;47.40;46.90
76305;DHT22;65111;50.536;19.204;2023-06-22T10:23:12;46.20;52.00
76305;DHT22;65111;50.536;19.204;2023-06-22T10:25:38;45.80;50.00
76305;DHT22;65111;50.536;19.204;2023-06-22T10:28:04;46.00;55.60
76305;DHT22;65111;50.536;19.204;2023-06-22T10:30:30;46.40;50.30
76305;DHT22;65111;50.536;19.204;2023-06-22T10:32:56;46.80;56.40
76305;DHT22;65111;50.536;19.204;2023-06-22T10:35:22;47.90;60.30
76305;DHT22;65111;50.536;19.204;2023-06-22T10:37:48;48.00;61.40
76305;DHT22;65111;50.536;19.204;2023-06-22T10:40:16;47.70;44.50
76305;DHT22;65111;50.536;19.204;2023-06-22T10:42:43;47.30;48.90
76305;DHT22;65111;50.536;19.204;2023-06-22T10:45:09;47.00;59.20
76305;DHT22;65111;50.536;19.204;2023-06-22T10:47:36;46.90;64.70
76305;DHT22;65111;50.536;19.204;2023-06-22T10:50:03;46.50;56.90
76305;DHT22;65111;50.536;19.204;2023-06-22T10:52:29;45.90;40.30
76305;DHT22;65111;50.536;19.204;2023-06-22T10:54:55;45.40;49.70
76305;DHT22;65111;50.536;19.204;2023-06-22T10:57:22;45.40;59.30
76305;DHT22;65111;50.536;19.204;2023-06-22T10:59:48;44.80;45.10
76305;DHT22;65111;50.536;19.204;2023-06-22T11:02:14;44.60;51.30
76305;DHT22;65111;50.536;19.204;2023-06-22T11:04:40;44.70;63.30
76305;DHT22;65111;50.536;19.204;2023-06-22T11:07:06;45.00;48.20
76305;DHT22;65111;50.536;19.204;2023-06-22T11:09:31;45.10;58.70
76305;DHT22;65111;50.536;19.204;2023-06-22T11:11:58;45.00;61.20
76305;DHT22;65111;50.536;19.204;2023-06-22T11:14:25;44.90;52.40
76305;DHT22;65111;50.536;19.204;2023-06-22T11:16:51;44.60;41.90
76305;DHT22;65111;50.536;19.204;2023-06-22T11:19:18;43.70;56.90
76305;DHT22;65111;50.536;19.204;2023-06-22T11:21:44;43.00;45.80
76305;DHT22;65111;50.536;19.204;2023-06-22T11:24:10;41.70;57.80
76305;DHT22;65111;50.536;19.204;2023-06-22T11:26:36;41.30;67.20
76305;DHT22;65111;50.536;19.204;2023-06-22T11:29:03;40.50;68.20
76305;DHT22;65111;50.536;19.204;2023-06-22T11:31:32;39.50;73.90
76305;DHT22;65111;50.536;19.204;2023-06-22T11:33:58;38.60;79.20
76305;DHT22;65111;50.536;19.204;2023-06-22T11:36:25;37.80;82.60
76305;DHT22;65111;50.536;19.204;2023-06-22T11:38:51;37.00;85.00
76305;DHT22;65111;50.536;19.204;2023-06-22T11:41:17;36.30;85.50
76305;DHT22;65111;50.536;19.204;2023-06-22T11:43:44;36.00;86.70
76305;DHT22;65111;50.536;19.204;2023-06-22T11:46:10;35.50;87.30
76305;DHT22;65111;50.536;19.204;2023-06-22T11:48:36;35.30;88.60
76305;DHT22;65111;50.536;19.204;2023-06-22T11:51:02;35.30;89.50
76305;DHT22;65111;50.536;19.204;2023-06-22T11:53:29;35.30;92.70
76305;DHT22;65111;50.536;19.204;2023-06-22T11:55:56;35.20;92.50
76305;DHT22;65111;50.536;19.204;2023-06-22T11:58:22;34.70;92.30
76305;DHT22;65111;50.536;19.204;2023-06-22T12:00:48;34.00;91.90
76305;DHT22;65111;50.536;19.204;2023-06-22T12:03:15;33.50;92.10
76305;DHT22;65111;50.536;19.204;2023-06-22T12:05:42;33.30;93.00
76305;DHT22;65111;50.536;19.204;2023-06-22T12:08:08;32.90;93.00
76305;DHT22;65111;50.536;19.204;2023-06-22T12:10:34;32.90;94.40
76305;DHT22;65111;50.536;19.204;2023-06-22T12:13:00;33.00;94.60
76305;DHT22;65111;50.536;19.204;2023-06-22T12:15:26;33.00;95.10
76305;DHT22;65111;50.536;19.204;2023-06-22T12:17:53;33.10;94.80
76305;DHT22;65111;50.536;19.204;2023-06-22T12:20:19;33.20;95.60
76305;DHT22;65111;50.536;19.204;2023-06-22T12:22:45;32.90;92.50
76305;DHT22;65111;50.536;19.204;2023-06-22T12:25:11;32.40;91.30
76305;DHT22;65111;50.536;19.204;2023-06-22T12:27:37;32.00;92.60
76305;DHT22;65111;50.536;19.204;2023-06-22T12:30:04;32.00;93.80
76305;DHT22;65111;50.536;19.204;2023-06-22T12:32:30;32.00;96.10
76305;DHT22;65111;50.536;19.204;2023-06-22T12:34:56;32.10;96.10
76305;DHT22;65111;50.536;19.204;2023-06-22T12:37:23;32.10;95.40
76305;DHT22;65111;50.536;19.204;2023-06-22T12:39:49;32.30;96.00
76305;DHT22;65111;50.536;19.204;2023-06-22T12:42:16;32.30;95.90
76305;DHT22;65111;50.536;19.204;2023-06-22T12:44:43;32.40;96.00
76305;DHT22;65111;50.536;19.204;2023-06-22T12:47:09;32.40;95.70
76305;DHT22;65111;50.536;19.204;2023-06-22T12:49:35;32.60;96.10
76305;DHT22;65111;50.536;19.204;2023-06-22T12:52:02;32.60;96.00
76305;DHT22;65111;50.536;19.204;2023-06-22T12:54:29;32.60;95.70
76305;DHT22;65111;50.536;19.204;2023-06-22T12:56:58;32.70;95.70
76305;DHT22;65111;50.536;19.204;2023-06-22T12:59:24;32.70;94.90
76305;DHT22;65111;50.536;19.204;2023-06-22T13:01:50;32.60;94.70
76305;DHT22;65111;50.536;19.204;2023-06-22T13:04:16;32.70;94.90
76305;DHT22;65111;50.536;19.204;2023-06-22T13:06:44;32.70;94.80
76305;DHT22;65111;50.536;19.204;2023-06-22T13:09:15;32.50;91.00
76305;DHT22;65111;50.536;19.204;2023-06-22T13:11:45;32.20;92.00
76305;DHT22;65111;50.536;19.204;2023-06-22T13:14:10;31.80;89.80
76305;DHT22;65111;50.536;19.204;2023-06-22T13:16:36;31.50;88.30
76305;DHT22;65111;50.536;19.204;2023-06-22T13:19:02;31.10;87.70
76305;DHT22;65111;50.536;19.204;2023-06-22T13:21:30;31.30;90.60
76305;DHT22;65111;50.536;19.204;2023-06-22T13:23:56;31.50;91.00
76305;DHT22;65111;50.536;19.204;2023-06-22T13:26:22;31.70;91.80
76305;DHT22;65111;50.536;19.204;2023-06-22T13:28:48;32.00;92.40
76305;DHT22;65111;50.536;19.204;2023-06-22T13:31:14;32.00;90.50
76305;DHT22;65111;50.536;19.204;2023-06-22T13:33:40;32.10;90.50
76305;DHT22;65111;50.536;19.204;2023-06-22T13:36:11;32.00;88.10
76305;DHT22;65111;50.536;19.204;2023-06-22T13:38:37;32.10;89.10
76305;DHT22;65111;50.536;19.204;2023-06-22T13:41:05;32.30;90.60
76305;DHT22;65111;50.536;19.204;2023-06-22T13:43:31;32.30;90.20
76305;DHT22;65111;50.536;19.204;2023-06-22T13:45:58;32.30;90.40
76305;DHT22;65111;50.536;19.204;2023-06-22T13:48:24;32.50;90.50
76305;DHT22;65111;50.536;19.204;2023-06-22T13:50:52;32.50;90.50
76305;DHT22;65111;50.536;19.204;2023-06-22T13:53:18;32.50;89.90
76305;DHT22;65111;50.536;19.204;2023-06-22T13:55:44;32.60;89.40
76305;DHT22;65111;50.536;19.204;2023-06-22T13:58:10;32.60;89.10
76305;DHT22;65111;50.536;19.204;2023-06-22T14:00:36;32.40;87.00
76305;DHT22;65111;50.536;19.204;2023-06-22T14:03:02;32.40;87.70
76305;DHT22;65111;50.536;19.204;2023-06-22T14:05:28;32.30;87.50
76305;DHT22;65111;50.536;19.204;2023-06-22T14:07:54;32.10;87.10
76305;DHT22;65111;50.536;19.204;2023-06-22T14:10:20;32.10;87.60
76305;DHT22;65111;50.536;19.204;2023-06-22T14:12:46;32.10;87.90
76305;DHT22;65111;50.536;19.204;2023-06-22T14:15:12;31.90;82.60
76305;DHT22;65111;50.536;19.204;2023-06-22T14:17:39;31.80;84.30
76305;DHT22;65111;50.536;19.204;2023-06-22T14:20:05;31.80;85.50
76305;DHT22;65111;50.536;19.204;2023-06-22T14:22:34;31.70;81.70
76305;DHT22;65111;50.536;19.204;2023-06-22T14:25:01;31.60;82.00
76305;DHT22;65111;50.536;19.204;2023-06-22T14:27:27;31.60;83.10
76305;DHT22;65111;50.536;19.204;2023-06-22T14:29:53;31.60;82.80
76305;DHT22;65111;50.536;19.204;2023-06-22T14:32:19;31.70;83.40
76305;DHT22;65111;50.536;19.204;2023-06-22T14:34:45;31.70;82.80
76305;DHT22;65111;50.536;19.204;2023-06-22T14:37:11;31.80;82.10
76305;DHT22;65111;50.536;19.204;2023-06-22T14:39:38;31.90;83.90
76305;DHT22;65111;50.536;19.204;2023-06-22T14:42:08;31.90;82.90
76305;DHT22;65111;50.536;19.204;2023-06-22T14:44:34;32.00;82.60
76305;DHT22;65111;50.536;19.204;2023-06-22T14:47:00;31.90;82.60
76305;DHT22;65111;50.536;19.204;2023-06-22T14:49:27;31.90;83.20
76305;DHT22;65111;50.536;19.204;2023-06-22T14:51:53;32.00;82.20
76305;DHT22;65111;50.536;19.204;2023-06-22T14:54:19;31.90;83.20
76305;DHT22;65111;50.536;19.204;2023-06-22T14:56:47;31.80;83.30
76305;DHT22;65111;50.536;19.204;2023-06-22T14:59:13;31.80;83.00
76305;DHT22;65111;50.536;19.204;2023-06-22T15:01:39;31.60;80.60
76305;DHT22;65111;50.536;19.204;2023-06-22T15:04:05;31.50;78.60
76305;DHT22;65111;50.536;19.204;2023-06-22T15:06:31;31.30;78.80
76305;DHT22;65111;50.536;19.204;2023-06-22T15:08:57;30.80;70.70
76305;DHT22;65111;50.536;19.204;2023-06-22T15:11:23;30.60;78.10
76305;DHT22;65111;50.536;19.204;2023-06-22T15:13:49;30.50;76.90